createdAt,value
2022-11-05T00:03:07.661Z,20.92
2022-11-05T00:09:30.005Z,19.98
2022-11-05T00:15:51.074Z,18.85
2022-11-05T00:22:11.763Z,22.30
2022-11-05T00:28:14.055Z,21.35
2022-11-05T00:34:16.179Z,19.75
2022-11-05T00:40:18.435Z,21.55
2022-11-05T00:46:20.563Z,22.93
2022-11-05T00:52:41.098Z,21.67
2022-11-05T00:58:43.120Z,22.90
2022-11-05T01:04:45.584Z,23.20
2022-11-05T01:10:51.440Z,22.77
2022-11-05T01:16:53.734Z,22.27
2022-11-05T01:22:56.030Z,21.17
2022-11-05T01:29:00.732Z,22.83
2022-11-05T01:35:05.033Z,21.83
2022-11-05T01:41:07.509Z,19.58
2022-11-05T01:47:25.471Z,21.25
2022-11-05T01:53:33.898Z,19.65
2022-11-05T01:59:41.316Z,19.15
2022-11-05T02:05:44.765Z,17.95
2022-11-05T02:11:47.931Z,18.13
2022-11-05T02:18:15.858Z,18.25
2022-11-05T02:24:53.835Z,17.33
2022-11-05T02:31:01.829Z,16.25
2022-11-05T02:37:07.169Z,16.60
2022-11-05T02:43:25.024Z,17.08
2022-11-05T02:49:48.342Z,15.25
2022-11-05T02:56:16.624Z,17.10
2022-11-05T03:02:18.707Z,17.50
2022-11-05T03:08:57.459Z,16.15
2022-11-05T03:15:09.159Z,16.38
2022-11-05T03:21:21.874Z,16.17
2022-11-05T03:27:28.191Z,16.80
2022-11-05T03:33:33.654Z,17.45
2022-11-05T03:39:46.283Z,16.55
2022-11-05T03:45:56.336Z,16.45
2022-11-05T03:52:22.220Z,16.08
2022-11-05T03:58:25.154Z,15.75
2022-11-05T04:04:27.283Z,14.82
2022-11-05T04:10:48.268Z,16.90
2022-11-05T04:17:09.221Z,15.38
2022-11-05T04:23:29.948Z,16.45
2022-11-05T04:29:50.707Z,17.60
2022-11-05T04:35:52.927Z,15.45
2022-11-05T04:41:55.173Z,15.48
2022-11-05T04:47:57.783Z,16.30
2022-11-05T04:53:59.902Z,15.63
2022-11-05T05:00:02.323Z,17.87
2022-11-05T05:06:04.635Z,16.70
2022-11-05T05:12:08.609Z,16.27
2022-11-05T05:18:10.767Z,15.85
2022-11-05T05:24:17.738Z,17.70
2022-11-05T05:30:19.861Z,16.55
2022-11-05T05:36:22.968Z,17.17
2022-11-05T05:42:25.527Z,17.67
2022-11-05T05:48:27.715Z,16.23
2022-11-05T05:54:32.854Z,17.27
2022-11-05T06:00:36.775Z,18.80
2022-11-05T06:06:38.936Z,18.08
2022-11-05T06:12:41.581Z,18.30
2022-11-05T06:18:44.126Z,21.38
2022-11-05T06:24:46.298Z,20.05
2022-11-05T06:30:52.173Z,20.93
2022-11-05T06:36:54.159Z,21.70
2022-11-05T06:42:56.475Z,22.33
2022-11-05T06:48:58.646Z,24.08
2022-11-05T06:55:00.937Z,22.20
2022-11-05T07:01:08.893Z,23.40
2022-11-05T07:07:11.612Z,22.50
2022-11-05T07:13:14.106Z,22.63
2022-11-05T07:25:18.877Z,23.27
2022-11-05T07:31:21.136Z,22.33
2022-11-05T07:37:23.510Z,25.65
2022-11-05T07:43:26.037Z,23.40
2022-11-05T07:49:28.533Z,23.65
2022-11-05T07:55:31.092Z,25.50
2022-11-05T08:01:33.386Z,24.13
2022-11-05T08:07:36.457Z,25.30
2022-11-05T08:13:39.289Z,27.10
2022-11-05T08:25:47.196Z,25.88
2022-11-05T08:31:49.280Z,27.33
2022-11-05T08:37:51.214Z,25.33
2022-11-05T08:43:56.496Z,26.20
2022-11-05T08:49:58.417Z,26.77
2022-11-05T08:56:00.786Z,25.02
2022-11-05T09:02:03.098Z,26.90
2022-11-05T09:08:10.230Z,24.15
2022-11-05T09:14:12.531Z,25.00
2022-11-05T09:20:14.691Z,24.33
2022-11-05T09:26:16.917Z,25.48
2022-11-05T09:32:19.578Z,24.23
2022-11-05T09:38:21.711Z,23.85
2022-11-05T09:44:38.107Z,25.08
2022-11-05T09:50:43.513Z,23.05
2022-11-05T09:56:46.685Z,22.77
2022-11-05T10:02:52.754Z,22.55
2022-11-05T10:09:36.238Z,23.90
2022-11-05T10:15:44.045Z,24.92
2022-11-05T10:22:05.977Z,26.40
2022-11-05T10:28:11.666Z,27.10
2022-11-05T10:34:17.934Z,23.52
2022-11-05T10:40:42.888Z,21.13
2022-11-05T10:46:50.169Z,23.77
2022-11-05T10:52:52.463Z,24.20
2022-11-05T10:58:57.537Z,22.83
2022-11-05T11:04:59.957Z,22.02
2022-11-05T11:11:11.772Z,20.92
2022-11-05T11:17:30.510Z,20.97
2022-11-05T11:23:39.067Z,21.25
2022-11-05T11:29:48.981Z,19.17
2022-11-05T11:35:51.766Z,17.95
2022-11-05T11:41:57.425Z,20.38
2022-11-05T11:48:03.043Z,19.63
2022-11-05T11:54:05.745Z,19.40
2022-11-05T12:00:10.053Z,17.23
2022-11-05T12:06:20.847Z,17.70
2022-11-05T12:12:46.558Z,23.98
2022-11-05T12:19:23.274Z,22.17
2022-11-05T12:25:38.024Z,19.05
2022-11-05T12:32:06.162Z,17.83
2022-11-05T12:38:19.959Z,18.83
2022-11-05T12:44:42.499Z,17.48
2022-11-05T12:50:50.170Z,22.93
2022-11-05T12:56:56.058Z,18.48
2022-11-05T13:03:10.146Z,25.40
2022-11-05T13:09:38.729Z,18.23
2022-11-05T13:15:49.621Z,17.27
2022-11-05T13:22:00.624Z,18.42
2022-11-05T13:28:23.594Z,16.80
2022-11-05T13:34:26.097Z,16.80
2022-11-05T13:40:37.392Z,16.30
2022-11-05T13:47:04.986Z,15.35
2022-11-05T13:53:22.252Z,15.20
2022-11-05T13:59:41.626Z,17.73
2022-11-05T14:05:44.428Z,17.63
2022-11-05T14:11:54.054Z,15.48
2022-11-05T14:17:57.955Z,17.35
2022-11-05T14:24:21.377Z,16.67
2022-11-05T14:30:47.770Z,18.25
2022-11-05T14:37:11.934Z,16.65
2022-11-05T14:43:14.142Z,17.27
2022-11-05T14:49:21.820Z,15.82
2022-11-05T14:55:34.983Z,18.42
2022-11-05T15:01:43.043Z,16.88
2022-11-05T15:07:45.209Z,17.30
2022-11-05T15:13:56.220Z,18.15
2022-11-05T15:20:10.326Z,17.05
2022-11-05T15:26:34.478Z,16.95
2022-11-05T15:32:38.583Z,17.63
2022-11-05T15:38:56.692Z,18.95
2022-11-05T15:45:04.678Z,17.42
2022-11-05T15:51:06.985Z,17.95
2022-11-05T15:57:24.662Z,17.33
2022-11-05T16:03:31.877Z,17.33
2022-11-05T16:09:36.939Z,16.98
2022-11-05T16:15:39.039Z,21.08
2022-11-05T16:21:54.914Z,19.10
2022-11-05T16:28:01.282Z,18.55
2022-11-05T16:34:03.388Z,18.48
2022-11-05T16:40:21.096Z,20.55
2022-11-05T16:46:25.907Z,20.17
2022-11-05T16:52:28.049Z,20.48
2022-11-05T16:58:30.550Z,21.17
2022-11-05T17:04:32.707Z,20.75
2022-11-05T17:10:35.127Z,19.77
2022-11-05T17:16:38.151Z,21.67
2022-11-05T17:22:40.141Z,21.55
2022-11-05T17:28:42.296Z,21.47
2022-11-05T17:34:44.317Z,22.90
2022-11-05T17:40:46.500Z,20.10
2022-11-05T17:46:48.529Z,22.30
2022-11-05T17:52:50.778Z,23.43
2022-11-05T17:58:52.911Z,20.58
2022-11-05T18:04:54.995Z,22.07
2022-11-05T18:10:57.048Z,22.47
2022-11-05T18:17:00.422Z,24.43
2022-11-05T18:23:02.440Z,23.05
2022-11-05T18:29:05.426Z,24.33
2022-11-05T18:35:07.786Z,24.88
2022-11-05T18:41:09.897Z,24.17
2022-11-05T18:47:12.301Z,24.38
2022-11-05T18:53:14.418Z,25.38
2022-11-05T19:05:40.814Z,25.40
2022-11-05T19:11:43.198Z,26.00
2022-11-05T19:17:45.579Z,25.40
2022-11-05T19:23:47.998Z,26.55
2022-11-05T19:29:50.214Z,26.67
2022-11-05T19:35:52.338Z,26.67
2022-11-05T19:41:57.699Z,27.25
2022-11-05T19:48:04.808Z,28.05
2022-11-05T19:54:07.917Z,25.15
2022-11-05T20:00:10.421Z,27.23
2022-11-05T20:06:28.776Z,24.65
2022-11-05T20:12:31.033Z,25.88
2022-11-05T20:18:33.492Z,24.70
2022-11-05T20:24:35.849Z,24.42
2022-11-05T20:30:39.641Z,25.02
2022-11-05T20:36:41.754Z,24.77
2022-11-05T20:42:44.124Z,27.17
2022-11-05T20:48:46.551Z,25.42
2022-11-05T20:54:48.542Z,24.40
2022-11-05T21:00:55.880Z,25.33
2022-11-05T21:06:58.359Z,22.40
2022-11-05T21:13:00.391Z,23.60
2022-11-05T21:19:03.130Z,25.13
2022-11-05T21:25:06.078Z,24.70
2022-11-05T21:31:09.082Z,25.50
2022-11-05T21:37:11.748Z,24.77
2022-11-05T21:43:14.023Z,25.60
2022-11-05T21:49:16.034Z,24.67
2022-11-05T21:55:36.694Z,26.37
2022-11-05T22:01:38.985Z,26.15
2022-11-05T22:07:41.114Z,27.38
2022-11-05T22:13:43.345Z,26.03
2022-11-05T22:19:45.471Z,28.13
2022-11-05T22:25:47.452Z,26.15
2022-11-05T22:31:49.795Z,27.33
2022-11-05T22:37:51.828Z,29.35
2022-11-05T22:43:54.038Z,29.83
2022-11-05T22:49:56.021Z,27.85
2022-11-05T22:55:58.402Z,31.60
2022-11-05T23:02:05.164Z,31.67
2022-11-05T23:08:29.476Z,32.60
2022-11-05T23:14:31.602Z,35.75
2022-11-05T23:20:52.099Z,34.70
2022-11-05T23:26:54.208Z,34.92
2022-11-05T23:32:56.529Z,33.72
2022-11-05T23:38:58.688Z,31.42
2022-11-05T23:45:19.125Z,29.27
2022-11-05T23:51:21.300Z,26.15
2022-11-05T23:57:23.298Z,25.47
